sensor_id;sensor_type;location;lat;lon;timestamp;P1;durP1;ratioP1;P2;durP2;ratioP2
67712;SDS011;54503;55.784;49.138;2022-11-25T00:04:50;22.00;;;7.43;;
67712;SDS011;54503;55.784;49.138;2022-11-25T00:10:09;19.98;;;6.62;;
67712;SDS011;54503;55.784;49.138;2022-11-25T00:15:28;19.70;;;6.77;;
67712;SDS011;54503;55.784;49.138;2022-11-25T00:20:33;23.00;;;7.55;;
67712;SDS011;54503;55.784;49.138;2022-11-25T00:25:39;16.70;;;6.05;;
67712;SDS011;54503;55.784;49.138;2022-11-25T00:30:47;23.23;;;7.70;;
67712;SDS011;54503;55.784;49.138;2022-11-25T00:36:05;21.00;;;7.05;;
67712;SDS011;54503;55.784;49.138;2022-11-25T00:41:10;22.70;;;8.78;;
67712;SDS011;54503;55.784;49.138;2022-11-25T00:46:35;22.17;;;7.87;;
67712;SDS011;54503;55.784;49.138;2022-11-25T00:51:54;21.00;;;7.03;;
67712;SDS011;54503;55.784;49.138;2022-11-25T00:57:00;23.90;;;7.35;;
67712;SDS011;54503;55.784;49.138;2022-11-25T01:02:17;18.83;;;6.83;;
67712;SDS011;54503;55.784;49.138;2022-11-25T01:07:25;18.80;;;7.30;;
67712;SDS011;54503;55.784;49.138;2022-11-25T01:12:30;24.67;;;7.90;;
67712;SDS011;54503;55.784;49.138;2022-11-25T01:17:47;20.95;;;7.25;;
67712;SDS011;54503;55.784;49.138;2022-11-25T01:22:52;24.12;;;7.83;;
67712;SDS011;54503;55.784;49.138;2022-11-25T01:27:58;23.57;;;7.75;;
67712;SDS011;54503;55.784;49.138;2022-11-25T01:33:28;21.25;;;7.45;;
67712;SDS011;54503;55.784;49.138;2022-11-25T01:38:34;20.17;;;7.50;;
67712;SDS011;54503;55.784;49.138;2022-11-25T02:00:43;24.57;;;7.67;;
67712;SDS011;54503;55.784;49.138;2022-11-25T02:06:05;17.60;;;6.93;;
67712;SDS011;54503;55.784;49.138;2022-11-25T02:11:24;24.95;;;7.85;;
67712;SDS011;54503;55.784;49.138;2022-11-25T02:16:49;21.07;;;6.93;;
67712;SDS011;54503;55.784;49.138;2022-11-25T02:22:18;26.90;;;7.87;;
67712;SDS011;54503;55.784;49.138;2022-11-25T02:27:22;22.93;;;7.95;;
67712;SDS011;54503;55.784;49.138;2022-11-25T02:32:42;25.40;;;8.58;;
67712;SDS011;54503;55.784;49.138;2022-11-25T02:43:25;29.47;;;8.57;;
67712;SDS011;54503;55.784;49.138;2022-11-25T02:48:59;27.33;;;7.87;;
67712;SDS011;54503;55.784;49.138;2022-11-25T02:54:04;27.70;;;7.80;;
67712;SDS011;54503;55.784;49.138;2022-11-25T02:59:33;25.85;;;8.15;;
67712;SDS011;54503;55.784;49.138;2022-11-25T03:04:38;21.80;;;6.57;;
67712;SDS011;54503;55.784;49.138;2022-11-25T03:09:58;36.00;;;8.80;;
67712;SDS011;54503;55.784;49.138;2022-11-25T03:15:03;32.73;;;9.18;;
67712;SDS011;54503;55.784;49.138;2022-11-25T03:20:22;25.73;;;8.03;;
67712;SDS011;54503;55.784;49.138;2022-11-25T03:25:27;27.27;;;9.05;;
67712;SDS011;54503;55.784;49.138;2022-11-25T03:30:46;31.33;;;9.50;;
67712;SDS011;54503;55.784;49.138;2022-11-25T03:36:06;24.00;;;8.27;;
67712;SDS011;54503;55.784;49.138;2022-11-25T03:41:11;28.87;;;8.10;;
67712;SDS011;54503;55.784;49.138;2022-11-25T03:46:16;23.27;;;7.67;;
67712;SDS011;54503;55.784;49.138;2022-11-25T03:51:21;26.10;;;8.45;;
67712;SDS011;54503;55.784;49.138;2022-11-25T03:56:38;21.57;;;7.33;;
67712;SDS011;54503;55.784;49.138;2022-11-25T04:01:42;20.60;;;7.45;;
67712;SDS011;54503;55.784;49.138;2022-11-25T04:06:48;26.02;;;8.15;;
67712;SDS011;54503;55.784;49.138;2022-11-25T04:11:53;27.52;;;8.40;;
67712;SDS011;54503;55.784;49.138;2022-11-25T04:17:17;26.43;;;8.50;;
67712;SDS011;54503;55.784;49.138;2022-11-25T04:22:36;17.93;;;6.20;;
67712;SDS011;54503;55.784;49.138;2022-11-25T04:27:41;20.48;;;6.45;;
67712;SDS011;54503;55.784;49.138;2022-11-25T04:33:10;16.95;;;6.15;;
67712;SDS011;54503;55.784;49.138;2022-11-25T04:38:16;20.57;;;6.77;;
67712;SDS011;54503;55.784;49.138;2022-11-25T04:43:35;24.20;;;7.17;;
67712;SDS011;54503;55.784;49.138;2022-11-25T04:48:54;18.20;;;5.50;;
67712;SDS011;54503;55.784;49.138;2022-11-25T04:54:13;20.95;;;6.80;;
67712;SDS011;54503;55.784;49.138;2022-11-25T04:59:40;21.00;;;6.65;;
67712;SDS011;54503;55.784;49.138;2022-11-25T05:04:46;20.77;;;7.55;;
67712;SDS011;54503;55.784;49.138;2022-11-25T05:10:05;24.07;;;7.33;;
67712;SDS011;54503;55.784;49.138;2022-11-25T05:15:26;22.75;;;6.65;;
67712;SDS011;54503;55.784;49.138;2022-11-25T05:20:31;26.07;;;7.75;;
67712;SDS011;54503;55.784;49.138;2022-11-25T05:25:36;23.83;;;7.83;;
67712;SDS011;54503;55.784;49.138;2022-11-25T05:30:41;21.50;;;7.60;;
67712;SDS011;54503;55.784;49.138;2022-11-25T05:36:02;23.00;;;8.05;;
67712;SDS011;54503;55.784;49.138;2022-11-25T05:41:21;22.90;;;8.40;;
67712;SDS011;54503;55.784;49.138;2022-11-25T05:46:26;22.40;;;7.03;;
67712;SDS011;54503;55.784;49.138;2022-11-25T05:51:47;26.52;;;7.85;;
67712;SDS011;54503;55.784;49.138;2022-11-25T05:56:53;26.10;;;7.87;;
67712;SDS011;54503;55.784;49.138;2022-11-25T06:01:58;26.35;;;8.53;;
67712;SDS011;54503;55.784;49.138;2022-11-25T06:07:02;27.97;;;8.43;;
67712;SDS011;54503;55.784;49.138;2022-11-25T06:12:22;25.65;;;8.68;;
67712;SDS011;54503;55.784;49.138;2022-11-25T06:17:41;28.75;;;8.50;;
67712;SDS011;54503;55.784;49.138;2022-11-25T06:22:46;23.90;;;7.97;;
67712;SDS011;54503;55.784;49.138;2022-11-25T06:28:10;26.00;;;8.58;;
67712;SDS011;54503;55.784;49.138;2022-11-25T06:33:15;23.98;;;7.90;;
67712;SDS011;54503;55.784;49.138;2022-11-25T06:38:34;31.60;;;10.27;;
67712;SDS011;54503;55.784;49.138;2022-11-25T06:43:55;23.92;;;8.25;;
67712;SDS011;54503;55.784;49.138;2022-11-25T06:49:19;30.75;;;9.05;;
67712;SDS011;54503;55.784;49.138;2022-11-25T06:54:43;27.52;;;9.08;;
67712;SDS011;54503;55.784;49.138;2022-11-25T07:00:08;25.45;;;8.75;;
67712;SDS011;54503;55.784;49.138;2022-11-25T07:05:31;25.17;;;8.57;;
67712;SDS011;54503;55.784;49.138;2022-11-25T07:11:00;47.10;;;10.90;;
67712;SDS011;54503;55.784;49.138;2022-11-25T07:16:19;30.23;;;11.12;;
67712;SDS011;54503;55.784;49.138;2022-11-25T07:21:44;29.95;;;9.88;;
67712;SDS011;54503;55.784;49.138;2022-11-25T07:32:25;29.55;;;9.88;;
67712;SDS011;54503;55.784;49.138;2022-11-25T07:37:30;32.57;;;10.30;;
67712;SDS011;54503;55.784;49.138;2022-11-25T07:42:49;25.88;;;8.83;;
67712;SDS011;54503;55.784;49.138;2022-11-25T07:48:08;25.87;;;8.57;;
67712;SDS011;54503;55.784;49.138;2022-11-25T07:53:14;28.98;;;9.23;;
67712;SDS011;54503;55.784;49.138;2022-11-25T07:58:44;31.55;;;9.88;;
67712;SDS011;54503;55.784;49.138;2022-11-25T08:03:51;36.03;;;9.63;;
67712;SDS011;54503;55.784;49.138;2022-11-25T08:09:10;27.73;;;9.50;;
67712;SDS011;54503;55.784;49.138;2022-11-25T08:14:16;32.70;;;11.53;;
67712;SDS011;54503;55.784;49.138;2022-11-25T08:19:21;33.80;;;11.25;;
67712;SDS011;54503;55.784;49.138;2022-11-25T08:24:40;34.47;;;10.63;;
67712;SDS011;54503;55.784;49.138;2022-11-25T08:30:00;31.42;;;10.38;;
67712;SDS011;54503;55.784;49.138;2022-11-25T08:35:25;31.17;;;11.00;;
67712;SDS011;54503;55.784;49.138;2022-11-25T08:40:49;35.88;;;10.93;;
67712;SDS011;54503;55.784;49.138;2022-11-25T08:51:34;25.37;;;9.68;;
67712;SDS011;54503;55.784;49.138;2022-11-25T08:56:40;35.43;;;11.08;;
67712;SDS011;54503;55.784;49.138;2022-11-25T09:01:57;28.10;;;8.75;;
67712;SDS011;54503;55.784;49.138;2022-11-25T09:07:03;30.23;;;9.85;;
67712;SDS011;54503;55.784;49.138;2022-11-25T09:12:09;29.33;;;9.90;;
67712;SDS011;54503;55.784;49.138;2022-11-25T09:17:26;29.87;;;10.20;;
67712;SDS011;54503;55.784;49.138;2022-11-25T09:22:32;30.35;;;8.83;;
67712;SDS011;54503;55.784;49.138;2022-11-25T09:27:37;29.90;;;10.20;;
67712;SDS011;54503;55.784;49.138;2022-11-25T09:32:42;33.53;;;9.83;;
67712;SDS011;54503;55.784;49.138;2022-11-25T09:37:47;28.23;;;10.20;;
67712;SDS011;54503;55.784;49.138;2022-11-25T09:43:08;29.87;;;10.43;;
67712;SDS011;54503;55.784;49.138;2022-11-25T09:53:56;28.00;;;10.08;;
67712;SDS011;54503;55.784;49.138;2022-11-25T09:59:02;32.73;;;10.10;;
67712;SDS011;54503;55.784;49.138;2022-11-25T10:04:22;32.45;;;10.75;;
67712;SDS011;54503;55.784;49.138;2022-11-25T10:09:28;30.60;;;9.23;;
67712;SDS011;54503;55.784;49.138;2022-11-25T10:31:38;38.13;;;15.20;;
67712;SDS011;54503;55.784;49.138;2022-11-25T10:36:44;32.58;;;11.28;;
67712;SDS011;54503;55.784;49.138;2022-11-25T10:41:51;36.98;;;10.70;;
67712;SDS011;54503;55.784;49.138;2022-11-25T10:58:31;35.97;;;10.50;;
67712;SDS011;54503;55.784;49.138;2022-11-25T11:03:52;37.58;;;10.78;;
67712;SDS011;54503;55.784;49.138;2022-11-25T11:14:43;36.70;;;10.78;;
67712;SDS011;54503;55.784;49.138;2022-11-25T11:25:33;30.20;;;10.90;;
67712;SDS011;54503;55.784;49.138;2022-11-25T11:30:38;28.03;;;9.53;;
67712;SDS011;54503;55.784;49.138;2022-11-25T11:36:05;30.27;;;10.27;;
67712;SDS011;54503;55.784;49.138;2022-11-25T11:41:11;30.08;;;9.95;;
67712;SDS011;54503;55.784;49.138;2022-11-25T12:19:23;32.67;;;11.50;;
67712;SDS011;54503;55.784;49.138;2022-11-25T12:47:25;35.70;;;10.33;;
67712;SDS011;54503;55.784;49.138;2022-11-25T13:25:43;28.20;;;10.70;;
67712;SDS011;54503;55.784;49.138;2022-11-25T13:42:42;43.25;;;12.33;;
67712;SDS011;54503;55.784;49.138;2022-11-25T13:47:45;46.20;;;13.48;;
67712;SDS011;54503;55.784;49.138;2022-11-25T13:52:55;44.18;;;11.53;;
67712;SDS011;54503;55.784;49.138;2022-11-25T14:36:23;45.23;;;13.85;;
67712;SDS011;54503;55.784;49.138;2022-11-25T14:46:50;38.48;;;12.28;;
67712;SDS011;54503;55.784;49.138;2022-11-25T14:51:55;39.80;;;14.13;;
67712;SDS011;54503;55.784;49.138;2022-11-25T15:08:27;46.77;;;14.68;;
67712;SDS011;54503;55.784;49.138;2022-11-25T15:19:13;43.08;;;13.58;;
67712;SDS011;54503;55.784;49.138;2022-11-25T15:29:39;41.33;;;13.58;;
67712;SDS011;54503;55.784;49.138;2022-11-25T15:34:59;39.98;;;13.40;;
67712;SDS011;54503;55.784;49.138;2022-11-25T15:50:48;38.30;;;13.88;;
67712;SDS011;54503;55.784;49.138;2022-11-25T15:55:57;42.33;;;14.00;;
67712;SDS011;54503;55.784;49.138;2022-11-25T16:06:34;41.42;;;13.78;;
67712;SDS011;54503;55.784;49.138;2022-11-25T16:17:19;45.12;;;13.22;;
67712;SDS011;54503;55.784;49.138;2022-11-25T16:22:38;43.92;;;14.18;;
67712;SDS011;54503;55.784;49.138;2022-11-25T16:27:57;40.87;;;13.87;;
67712;SDS011;54503;55.784;49.138;2022-11-25T16:33:21;40.43;;;13.18;;
67712;SDS011;54503;55.784;49.138;2022-11-25T16:38:27;41.17;;;13.57;;
67712;SDS011;54503;55.784;49.138;2022-11-25T16:43:44;39.67;;;11.60;;
67712;SDS011;54503;55.784;49.138;2022-11-25T16:48:49;39.50;;;14.90;;
67712;SDS011;54503;55.784;49.138;2022-11-25T16:54:08;37.85;;;14.13;;
67712;SDS011;54503;55.784;49.138;2022-11-25T17:10:46;45.00;;;14.80;;
67712;SDS011;54503;55.784;49.138;2022-11-25T17:15:52;43.10;;;14.98;;
67712;SDS011;54503;55.784;49.138;2022-11-25T17:20:58;44.85;;;14.33;;
67712;SDS011;54503;55.784;49.138;2022-11-25T17:26:03;42.85;;;13.88;;
67712;SDS011;54503;55.784;49.138;2022-11-25T17:31:23;40.48;;;13.75;;
67712;SDS011;54503;55.784;49.138;2022-11-25T17:36:45;37.63;;;14.05;;
67712;SDS011;54503;55.784;49.138;2022-11-25T17:41:50;40.97;;;13.47;;
67712;SDS011;54503;55.784;49.138;2022-11-25T17:46:56;53.80;;;16.50;;
67712;SDS011;54503;55.784;49.138;2022-11-25T17:52:01;44.80;;;15.80;;
67712;SDS011;54503;55.784;49.138;2022-11-25T17:57:20;42.98;;;15.60;;
67712;SDS011;54503;55.784;49.138;2022-11-25T18:02:40;45.60;;;14.83;;
67712;SDS011;54503;55.784;49.138;2022-11-25T18:07:46;45.43;;;15.40;;
67712;SDS011;54503;55.784;49.138;2022-11-25T18:12:51;46.25;;;16.02;;
67712;SDS011;54503;55.784;49.138;2022-11-25T18:23:51;38.23;;;14.03;;
67712;SDS011;54503;55.784;49.138;2022-11-25T18:34:30;39.10;;;12.43;;
67712;SDS011;54503;55.784;49.138;2022-11-25T18:39:35;39.58;;;13.83;;
67712;SDS011;54503;55.784;49.138;2022-11-25T18:44:40;39.78;;;12.90;;
67712;SDS011;54503;55.784;49.138;2022-11-25T18:49:45;36.47;;;12.03;;
67712;SDS011;54503;55.784;49.138;2022-11-25T18:55:04;36.00;;;12.82;;
67712;SDS011;54503;55.784;49.138;2022-11-25T19:00:24;38.23;;;13.25;;
67712;SDS011;54503;55.784;49.138;2022-11-25T19:05:31;36.60;;;14.13;;
67712;SDS011;54503;55.784;49.138;2022-11-25T19:10:37;40.00;;;12.78;;
67712;SDS011;54503;55.784;49.138;2022-11-25T19:16:28;38.40;;;12.65;;
67712;SDS011;54503;55.784;49.138;2022-11-25T19:21:19;35.47;;;11.97;;
67712;SDS011;54503;55.784;49.138;2022-11-25T19:26:39;38.35;;;12.93;;
67712;SDS011;54503;55.784;49.138;2022-11-25T19:31:44;37.45;;;12.93;;
67712;SDS011;54503;55.784;49.138;2022-11-25T19:37:04;37.48;;;12.75;;
67712;SDS011;54503;55.784;49.138;2022-11-25T19:42:09;37.77;;;12.40;;
67712;SDS011;54503;55.784;49.138;2022-11-25T19:47:31;42.40;;;13.45;;
67712;SDS011;54503;55.784;49.138;2022-11-25T19:52:50;33.10;;;13.13;;
67712;SDS011;54503;55.784;49.138;2022-11-25T19:58:09;37.73;;;13.13;;
67712;SDS011;54503;55.784;49.138;2022-11-25T20:03:31;40.70;;;13.95;;
67712;SDS011;54503;55.784;49.138;2022-11-25T20:08:56;38.10;;;13.27;;
67712;SDS011;54503;55.784;49.138;2022-11-25T20:14:15;41.60;;;13.93;;
67712;SDS011;54503;55.784;49.138;2022-11-25T20:19:20;41.47;;;14.57;;
67712;SDS011;54503;55.784;49.138;2022-11-25T20:24:37;38.23;;;13.27;;
67712;SDS011;54503;55.784;49.138;2022-11-25T20:29:43;45.78;;;14.95;;
67712;SDS011;54503;55.784;49.138;2022-11-25T20:35:02;43.05;;;15.45;;
67712;SDS011;54503;55.784;49.138;2022-11-25T20:45:47;39.80;;;14.38;;
67712;SDS011;54503;55.784;49.138;2022-11-25T20:51:09;38.40;;;13.22;;
67712;SDS011;54503;55.784;49.138;2022-11-25T20:56:14;34.93;;;13.00;;
67712;SDS011;54503;55.784;49.138;2022-11-25T21:01:20;39.42;;;14.83;;
67712;SDS011;54503;55.784;49.138;2022-11-25T21:06:37;43.13;;;14.43;;
67712;SDS011;54503;55.784;49.138;2022-11-25T21:11:56;37.15;;;14.60;;
67712;SDS011;54503;55.784;49.138;2022-11-25T21:17:15;45.48;;;14.83;;
67712;SDS011;54503;55.784;49.138;2022-11-25T21:22:20;42.40;;;14.33;;
67712;SDS011;54503;55.784;49.138;2022-11-25T21:27:26;42.15;;;13.45;;
67712;SDS011;54503;55.784;49.138;2022-11-25T21:32:31;42.47;;;14.57;;
67712;SDS011;54503;55.784;49.138;2022-11-25T21:37:49;37.10;;;13.27;;
67712;SDS011;54503;55.784;49.138;2022-11-25T21:42:55;40.52;;;14.45;;
67712;SDS011;54503;55.784;49.138;2022-11-25T21:53:42;39.80;;;13.57;;
67712;SDS011;54503;55.784;49.138;2022-11-25T21:58:47;33.45;;;13.35;;
67712;SDS011;54503;55.784;49.138;2022-11-25T22:03:52;35.65;;;13.08;;
67712;SDS011;54503;55.784;49.138;2022-11-25T22:09:11;36.10;;;12.50;;
67712;SDS011;54503;55.784;49.138;2022-11-25T22:19:55;34.48;;;12.43;;
67712;SDS011;54503;55.784;49.138;2022-11-25T22:25:01;35.53;;;12.93;;
67712;SDS011;54503;55.784;49.138;2022-11-25T22:30:21;32.53;;;12.68;;
67712;SDS011;54503;55.784;49.138;2022-11-25T22:35:44;34.90;;;12.20;;
67712;SDS011;54503;55.784;49.138;2022-11-25T22:41:03;34.25;;;12.78;;
67712;SDS011;54503;55.784;49.138;2022-11-25T22:46:22;37.58;;;12.45;;
67712;SDS011;54503;55.784;49.138;2022-11-25T22:51:27;31.63;;;11.87;;
67712;SDS011;54503;55.784;49.138;2022-11-25T22:56:32;36.65;;;13.70;;
67712;SDS011;54503;55.784;49.138;2022-11-25T23:01:52;32.45;;;11.85;;
67712;SDS011;54503;55.784;49.138;2022-11-25T23:06:58;32.80;;;12.30;;
67712;SDS011;54503;55.784;49.138;2022-11-25T23:12:17;32.65;;;11.78;;
67712;SDS011;54503;55.784;49.138;2022-11-25T23:17:36;34.60;;;12.13;;
67712;SDS011;54503;55.784;49.138;2022-11-25T23:22:43;38.67;;;12.93;;
67712;SDS011;54503;55.784;49.138;2022-11-25T23:28:02;35.57;;;14.50;;
67712;SDS011;54503;55.784;49.138;2022-11-25T23:33:09;38.55;;;12.90;;
67712;SDS011;54503;55.784;49.138;2022-11-25T23:38:28;39.30;;;13.13;;
67712;SDS011;54503;55.784;49.138;2022-11-25T23:43:33;39.88;;;13.85;;
67712;SDS011;54503;55.784;49.138;2022-11-25T23:54:42;42.15;;;14.80;;
67712;SDS011;54503;55.784;49.138;2022-11-25T23:59:48;46.13;;;14.30;;
